createdAt,value
2019-05-17T00:00:13.409Z,10.28
2019-05-17T00:05:13.918Z,8.15
2019-05-17T00:07:44.610Z,9.45
2019-05-17T00:10:17.455Z,8.85
2019-05-17T00:12:48.593Z,9.10
2019-05-17T00:15:19.190Z,9.48
2019-05-17T00:17:49.936Z,10.72
2019-05-17T00:20:20.578Z,8.55
2019-05-17T00:22:51.214Z,9.90
2019-05-17T00:25:21.829Z,9.28
2019-05-17T00:27:52.591Z,10.00
2019-05-17T00:30:23.301Z,10.63
2019-05-17T00:32:54.109Z,9.33
2019-05-17T00:35:26.780Z,8.13
2019-05-17T00:37:57.188Z,8.53
2019-05-17T00:40:30.317Z,9.28
2019-05-17T00:43:01.059Z,9.08
2019-05-17T00:45:31.692Z,9.50
2019-05-17T00:48:02.400Z,9.23
2019-05-17T00:50:32.961Z,8.75
2019-05-17T00:53:03.793Z,9.05
2019-05-17T00:55:36.261Z,9.75
2019-05-17T00:58:06.974Z,8.87
2019-05-17T01:00:38.034Z,9.35
2019-05-17T01:03:08.702Z,10.35
2019-05-17T01:05:39.557Z,9.70
2019-05-17T01:08:10.196Z,9.20
2019-05-17T01:10:40.848Z,10.35
2019-05-17T01:13:11.519Z,9.60
2019-05-17T01:15:42.350Z,10.28
2019-05-17T01:18:12.909Z,10.03
2019-05-17T01:20:43.466Z,14.25
2019-05-17T01:23:16.527Z,11.73
2019-05-17T01:25:48.148Z,11.33
2019-05-17T01:28:18.990Z,12.18
2019-05-17T01:30:49.549Z,12.73
2019-05-17T01:33:20.322Z,16.27
2019-05-17T01:35:51.074Z,14.35
2019-05-17T01:38:21.717Z,14.53
2019-05-17T01:40:53.441Z,16.00
2019-05-17T01:43:24.013Z,12.85
2019-05-17T01:45:54.603Z,14.38
2019-05-17T01:48:27.094Z,14.60
2019-05-17T01:50:57.713Z,12.70
2019-05-17T01:53:28.644Z,14.98
2019-05-17T01:56:00.558Z,13.75
2019-05-17T01:58:31.165Z,11.65
2019-05-17T02:01:01.841Z,14.20
2019-05-17T02:03:32.650Z,14.25
2019-05-17T02:06:03.621Z,15.03
2019-05-17T02:08:34.374Z,15.38
2019-05-17T02:11:06.837Z,13.80
2019-05-17T02:13:37.772Z,14.13
2019-05-17T02:16:09.869Z,11.85
2019-05-17T02:18:40.973Z,12.43
2019-05-17T02:21:11.925Z,12.45
2019-05-17T02:23:42.516Z,12.23
2019-05-17T02:26:13.158Z,12.20
2019-05-17T02:28:43.961Z,14.28
2019-05-17T02:31:14.613Z,13.45
2019-05-17T02:33:45.272Z,14.83
2019-05-17T02:36:16.115Z,11.68
2019-05-17T02:38:46.702Z,13.15
2019-05-17T02:41:17.566Z,12.65
2019-05-17T02:43:48.318Z,13.50
2019-05-17T02:46:19.303Z,16.52
2019-05-17T02:48:53.574Z,12.98
2019-05-17T02:51:23.682Z,14.93
2019-05-17T02:53:54.564Z,14.73
2019-05-17T02:56:25.284Z,15.43
2019-05-17T02:58:55.863Z,12.68
2019-05-17T03:01:26.530Z,14.25
2019-05-17T03:03:58.693Z,15.20
2019-05-17T03:06:29.364Z,13.60
2019-05-17T03:09:03.340Z,16.37
2019-05-17T03:11:34.398Z,16.35
2019-05-17T03:14:05.271Z,14.83
2019-05-17T03:16:36.012Z,15.78
2019-05-17T03:19:06.667Z,13.95
2019-05-17T03:21:37.309Z,13.70
2019-05-17T03:24:07.970Z,14.65
2019-05-17T03:26:38.589Z,13.00
2019-05-17T03:29:09.522Z,13.53
2019-05-17T03:31:44.869Z,12.13
2019-05-17T03:34:16.775Z,12.13
2019-05-17T03:36:47.012Z,11.57
2019-05-17T03:39:16.811Z,12.75
2019-05-17T03:41:47.633Z,11.97
2019-05-17T03:44:18.442Z,12.35
2019-05-17T03:46:49.137Z,11.55
2019-05-17T03:49:22.361Z,11.97
2019-05-17T03:51:53.215Z,12.53
2019-05-17T03:54:24.192Z,11.65
2019-05-17T03:56:55.046Z,10.23
2019-05-17T03:59:25.763Z,12.23
2019-05-17T04:01:57.574Z,9.25
2019-05-17T04:04:28.411Z,10.70
2019-05-17T04:06:59.163Z,9.95
2019-05-17T04:09:32.679Z,9.00
2019-05-17T04:12:02.859Z,9.35
2019-05-17T04:14:33.777Z,10.43
2019-05-17T04:17:04.571Z,8.13
2019-05-17T04:19:35.319Z,8.78
2019-05-17T04:22:06.152Z,7.53
2019-05-17T04:24:36.713Z,7.80
2019-05-17T04:27:07.403Z,9.48
2019-05-17T04:29:38.166Z,8.08
2019-05-17T04:32:08.832Z,6.17
2019-05-17T04:34:43.395Z,5.90
2019-05-17T04:37:13.082Z,6.05
2019-05-17T04:39:44.728Z,5.25
2019-05-17T04:42:15.519Z,8.70
2019-05-17T04:44:47.190Z,9.60
2019-05-17T04:47:18.045Z,5.87
2019-05-17T04:49:48.650Z,6.28
2019-05-17T04:52:22.524Z,6.83
2019-05-17T04:54:53.796Z,7.22
2019-05-17T04:57:23.967Z,5.67
2019-05-17T04:59:54.911Z,6.58
2019-05-17T05:02:25.570Z,6.72
2019-05-17T05:04:56.152Z,6.50
2019-05-17T05:07:27.771Z,6.05
2019-05-17T05:09:58.524Z,5.50
2019-05-17T05:12:29.309Z,4.72
2019-05-17T05:15:03.214Z,5.30
2019-05-17T05:17:32.982Z,5.23
2019-05-17T05:20:04.379Z,5.12
2019-05-17T05:22:35.013Z,5.12
2019-05-17T05:25:06.808Z,8.13
2019-05-17T05:27:37.408Z,5.17
2019-05-17T05:30:08.305Z,5.75
2019-05-17T05:32:39.013Z,6.90
2019-05-17T05:35:12.376Z,7.33
2019-05-17T05:37:42.769Z,6.47
2019-05-17T05:40:13.579Z,7.42
2019-05-17T05:42:44.310Z,8.33
2019-05-17T05:45:15.109Z,6.33
2019-05-17T05:47:45.727Z,7.97
2019-05-17T05:50:17.713Z,7.30
2019-05-17T05:52:52.312Z,7.70
2019-05-17T05:55:23.373Z,8.48
2019-05-17T05:57:54.198Z,7.33
2019-05-17T06:00:24.960Z,6.95
2019-05-17T06:02:55.642Z,6.90
2019-05-17T06:05:26.364Z,9.35
2019-05-17T06:07:58.219Z,7.00
2019-05-17T06:10:28.809Z,6.67
2019-05-17T06:13:02.585Z,8.53
2019-05-17T06:15:32.021Z,7.70
2019-05-17T06:18:03.228Z,7.10
2019-05-17T06:20:33.897Z,7.47
2019-05-17T06:23:04.433Z,6.40
2019-05-17T06:25:35.141Z,6.22
2019-05-17T06:28:05.848Z,6.72
2019-05-17T06:30:36.623Z,6.67
2019-05-17T06:33:07.240Z,7.22
2019-05-17T06:35:38.032Z,7.62
2019-05-17T06:38:08.860Z,6.83
2019-05-17T06:40:41.731Z,6.47
2019-05-17T06:43:12.970Z,9.50
2019-05-17T06:45:43.891Z,9.40
2019-05-17T06:48:14.750Z,8.38
2019-05-17T06:50:45.521Z,6.85
2019-05-17T06:53:16.157Z,5.05
2019-05-17T06:55:47.001Z,4.70
2019-05-17T06:58:17.616Z,8.18
2019-05-17T07:00:49.770Z,5.37
2019-05-17T07:03:21.039Z,5.15
2019-05-17T07:05:53.198Z,2.60
2019-05-17T07:08:23.902Z,2.70
2019-05-17T07:10:54.841Z,2.20
2019-05-17T07:13:25.746Z,3.00
2019-05-17T07:15:56.306Z,3.62
2019-05-17T07:18:27.057Z,2.00
2019-05-17T07:21:00.837Z,2.50
2019-05-17T07:23:30.379Z,2.20
2019-05-17T07:26:01.155Z,2.10
2019-05-17T07:28:31.726Z,2.08
2019-05-17T07:31:02.515Z,1.50
2019-05-17T07:33:33.192Z,2.10
2019-05-17T07:36:03.965Z,2.37
2019-05-17T07:38:34.942Z,2.45
2019-05-17T07:41:05.989Z,2.27
2019-05-17T07:43:36.809Z,1.80
2019-05-17T07:46:09.484Z,2.87
2019-05-17T07:48:40.892Z,3.12
2019-05-17T07:51:11.635Z,2.83
2019-05-17T07:53:42.374Z,2.52
2019-05-17T07:56:13.157Z,2.27
2019-05-17T07:58:43.895Z,2.80
2019-05-17T08:01:14.573Z,2.02
2019-05-17T08:03:45.310Z,2.37
2019-05-17T08:06:16.126Z,3.30
2019-05-17T08:08:46.855Z,4.50
2019-05-17T08:11:19.577Z,4.28
2019-05-17T08:13:50.458Z,4.55
2019-05-17T08:16:22.167Z,3.87
2019-05-17T08:18:52.928Z,4.40
2019-05-17T08:21:23.761Z,5.65
2019-05-17T08:23:54.400Z,4.45
2019-05-17T08:26:24.996Z,4.42
2019-05-17T08:28:55.739Z,4.65
2019-05-17T08:31:26.747Z,5.80
2019-05-17T08:33:57.359Z,10.60
2019-05-17T08:36:29.833Z,6.67
2019-05-17T08:39:00.218Z,4.47
2019-05-17T08:41:31.141Z,4.60
2019-05-17T08:44:01.814Z,3.83
2019-05-17T08:46:33.752Z,5.78
2019-05-17T08:49:04.336Z,4.90
2019-05-17T08:51:35.146Z,4.42
2019-05-17T08:54:05.732Z,5.95
2019-05-17T08:56:36.417Z,5.20
2019-05-17T08:59:09.455Z,5.47
2019-05-17T09:01:41.863Z,6.65
2019-05-17T09:04:11.839Z,8.57
2019-05-17T09:06:42.521Z,8.23
2019-05-17T09:09:13.400Z,6.10
2019-05-17T09:11:44.110Z,5.85
2019-05-17T09:14:14.823Z,8.88
2019-05-17T09:16:45.485Z,5.58
2019-05-17T09:19:16.241Z,5.22
2019-05-17T09:21:46.891Z,6.30
2019-05-17T09:24:19.437Z,4.47
2019-05-17T09:26:50.514Z,6.62
2019-05-17T09:29:21.086Z,6.75
2019-05-17T09:31:51.777Z,4.17
2019-05-17T09:34:22.519Z,3.90
2019-05-17T09:36:53.449Z,4.78
2019-05-17T09:39:24.039Z,3.42
2019-05-17T09:41:54.639Z,4.20
2019-05-17T09:44:25.435Z,4.05
2019-05-17T09:46:56.019Z,5.65
2019-05-17T09:49:26.618Z,4.10
2019-05-17T09:51:57.544Z,4.25
2019-05-17T09:54:41.670Z,4.97
2019-05-17T09:57:02.278Z,3.60
2019-05-17T09:59:33.082Z,4.67
2019-05-17T10:02:03.696Z,4.05
2019-05-17T10:04:35.962Z,4.05
2019-05-17T10:07:06.619Z,4.97
2019-05-17T10:09:39.840Z,5.17
2019-05-17T10:12:09.810Z,5.70
2019-05-17T10:14:40.496Z,5.37
2019-05-17T10:17:11.536Z,5.20
2019-05-17T10:19:42.363Z,6.85
2019-05-17T10:22:13.220Z,6.17
2019-05-17T10:24:44.041Z,6.78
2019-05-17T10:27:14.844Z,5.80
2019-05-17T10:29:45.808Z,6.28
2019-05-17T10:32:16.478Z,5.67
2019-05-17T10:34:49.410Z,6.05
2019-05-17T10:37:20.323Z,5.42
2019-05-17T10:39:51.324Z,4.90
2019-05-17T10:42:23.004Z,6.10
2019-05-17T10:44:54.719Z,7.70
2019-05-17T10:47:25.640Z,5.65
2019-05-17T10:49:56.266Z,6.03
2019-05-17T10:52:29.742Z,6.85
2019-05-17T10:54:59.918Z,5.00
2019-05-17T10:57:30.834Z,7.33
2019-05-17T11:00:01.426Z,6.92
2019-05-17T11:02:34.041Z,7.57
2019-05-17T11:05:06.087Z,6.95
2019-05-17T11:07:36.805Z,5.83
2019-05-17T11:10:11.216Z,8.05
2019-05-17T11:12:39.696Z,6.50
2019-05-17T11:15:12.023Z,6.10
2019-05-17T11:17:42.551Z,6.63
2019-05-17T11:20:13.342Z,6.75
2019-05-17T11:22:44.044Z,5.33
2019-05-17T11:25:14.786Z,5.47
2019-05-17T11:27:46.854Z,5.05
2019-05-17T11:30:17.454Z,5.42
2019-05-17T11:32:48.080Z,6.00
2019-05-17T11:35:19.041Z,5.10
2019-05-17T11:37:51.135Z,5.80
2019-05-17T11:40:23.114Z,6.03
2019-05-17T11:42:54.830Z,5.03
2019-05-17T11:45:29.078Z,5.45
2019-05-17T11:47:57.737Z,4.60
2019-05-17T11:50:28.502Z,4.42
2019-05-17T11:52:59.720Z,4.60
2019-05-17T11:55:30.859Z,4.47
2019-05-17T11:58:01.797Z,6.80
2019-05-17T12:00:32.417Z,4.30
2019-05-17T12:03:03.458Z,4.75
2019-05-17T12:05:34.235Z,3.83
2019-05-17T12:08:08.093Z,4.55
2019-05-17T12:10:38.617Z,4.30
2019-05-17T12:13:09.403Z,5.28
2019-05-17T12:15:45.195Z,3.90
2019-05-17T12:18:13.430Z,3.72
2019-05-17T12:20:45.412Z,4.10
2019-05-17T12:23:16.005Z,4.62
2019-05-17T12:25:46.625Z,5.90
2019-05-17T12:28:17.587Z,4.65
2019-05-17T12:30:48.380Z,4.58
2019-05-17T12:33:19.192Z,5.17
2019-05-17T12:35:50.405Z,3.95
2019-05-17T12:38:21.110Z,4.92
2019-05-17T12:40:51.878Z,5.80
2019-05-17T12:43:22.677Z,4.85
2019-05-17T12:46:00.711Z,4.90
2019-05-17T12:48:26.942Z,4.30
2019-05-17T12:50:59.048Z,4.20
2019-05-17T12:53:29.798Z,4.78
2019-05-17T12:56:00.499Z,4.00
2019-05-17T12:58:31.151Z,5.12
2019-05-17T13:01:02.369Z,4.50
2019-05-17T13:03:33.426Z,6.17
2019-05-17T13:06:04.077Z,4.85
2019-05-17T13:08:34.763Z,4.75
2019-05-17T13:11:05.683Z,6.50
2019-05-17T13:13:36.369Z,5.30
2019-05-17T13:16:17.569Z,6.00
2019-05-17T13:18:39.709Z,7.28
2019-05-17T13:21:10.943Z,7.78
2019-05-17T13:23:41.628Z,5.33
2019-05-17T13:26:12.480Z,5.03
2019-05-17T13:28:43.467Z,5.65
2019-05-17T13:31:14.677Z,4.50
2019-05-17T13:33:45.358Z,4.95
2019-05-17T13:36:16.698Z,4.17
2019-05-17T13:38:47.864Z,6.05
2019-05-17T13:41:18.884Z,6.90
2019-05-17T13:43:49.581Z,5.65
2019-05-17T13:46:32.179Z,6.22
2019-05-17T13:48:52.914Z,5.72
2019-05-17T13:51:24.269Z,6.67
2019-05-17T13:53:55.312Z,4.45
2019-05-17T13:56:26.520Z,4.95
2019-05-17T13:58:57.114Z,4.78
2019-05-17T14:01:28.081Z,6.53
2019-05-17T14:03:58.764Z,6.17
2019-05-17T14:06:29.701Z,6.70
2019-05-17T14:09:00.745Z,6.17
2019-05-17T14:11:32.717Z,4.62
2019-05-17T14:14:03.882Z,4.20
2019-05-17T14:16:34.864Z,4.08
2019-05-17T14:19:05.541Z,5.33
2019-05-17T14:21:36.951Z,4.45
2019-05-17T14:24:08.777Z,4.47
2019-05-17T14:26:39.529Z,5.00
2019-05-17T14:29:10.302Z,5.72
2019-05-17T14:31:41.146Z,5.40
2019-05-17T14:34:11.715Z,4.90
2019-05-17T14:36:42.391Z,7.15
2019-05-17T14:39:14.002Z,4.83
2019-05-17T14:41:45.257Z,5.72
2019-05-17T14:44:15.833Z,7.28
2019-05-17T14:46:46.473Z,7.20
2019-05-17T14:49:17.606Z,6.75
2019-05-17T14:51:48.386Z,5.67
2019-05-17T14:54:19.269Z,6.37
2019-05-17T14:56:50.081Z,5.78
2019-05-17T14:59:21.072Z,5.20
2019-05-17T15:01:51.786Z,8.25
2019-05-17T15:04:22.458Z,5.60
2019-05-17T15:06:53.284Z,8.28
2019-05-17T15:09:23.928Z,6.00
2019-05-17T15:11:54.601Z,6.35
2019-05-17T15:14:25.217Z,6.62
2019-05-17T15:16:55.853Z,6.53
2019-05-17T15:19:26.762Z,6.80
2019-05-17T15:21:57.716Z,7.58
2019-05-17T15:24:28.642Z,9.28
2019-05-17T15:27:05.186Z,8.18
2019-05-17T15:29:32.028Z,9.10
2019-05-17T15:32:22.034Z,10.05
2019-05-17T15:34:52.621Z,8.15
2019-05-17T15:37:23.324Z,7.50
2019-05-17T15:39:54.007Z,8.80
2019-05-17T15:42:24.843Z,8.03
2019-05-17T15:44:55.805Z,7.85
2019-05-17T15:47:26.825Z,8.88
2019-05-17T15:49:57.620Z,8.63
2019-05-17T15:52:28.340Z,9.38
2019-05-17T15:55:00.259Z,10.25
2019-05-17T15:57:31.049Z,7.65
2019-05-17T16:00:02.472Z,7.25
2019-05-17T16:02:34.029Z,8.85
2019-05-17T16:05:05.140Z,7.10
2019-05-17T16:07:36.778Z,7.97
2019-05-17T16:10:08.342Z,6.55
2019-05-17T16:12:40.181Z,7.20
2019-05-17T16:15:11.847Z,6.75
2019-05-17T16:17:42.960Z,8.13
2019-05-17T16:20:16.916Z,8.15
2019-05-17T16:22:48.161Z,8.28
2019-05-17T16:25:21.983Z,9.40
2019-05-17T16:27:52.582Z,8.68
2019-05-17T16:30:23.715Z,9.88
2019-05-17T16:32:55.956Z,7.60
2019-05-17T16:35:27.391Z,10.43
2019-05-17T16:38:00.576Z,8.60
2019-05-17T16:43:16.746Z,8.53
2019-05-17T16:45:34.505Z,9.13
2019-05-17T16:48:05.450Z,8.63
2019-05-17T16:50:36.283Z,8.38
2019-05-17T16:53:06.941Z,10.85
2019-05-17T16:55:37.526Z,7.75
2019-05-17T16:58:08.401Z,9.00
2019-05-17T17:00:41.722Z,10.70
2019-05-17T17:03:12.319Z,8.58
2019-05-17T17:05:43.428Z,9.35
2019-05-17T17:08:14.180Z,13.00
2019-05-17T17:10:45.147Z,10.50
2019-05-17T17:13:16.003Z,9.75
2019-05-17T17:15:47.809Z,10.68
2019-05-17T17:18:18.868Z,9.50
2019-05-17T17:20:49.766Z,10.98
2019-05-17T17:23:21.468Z,10.68
2019-05-17T17:25:52.741Z,13.35
2019-05-17T17:28:25.508Z,9.30
2019-05-17T17:30:56.353Z,12.47
2019-05-17T17:33:28.462Z,8.08
2019-05-17T17:35:59.723Z,8.85
2019-05-17T17:38:30.526Z,8.80
2019-05-17T17:41:02.927Z,9.00
2019-05-17T17:43:33.678Z,8.23
2019-05-17T17:46:04.400Z,8.73
2019-05-17T17:48:35.253Z,8.38
2019-05-17T17:51:06.097Z,8.85
2019-05-17T17:53:36.917Z,10.30
2019-05-17T17:56:07.970Z,7.33
2019-05-17T17:58:39.017Z,8.28
2019-05-17T18:01:10.188Z,9.35
2019-05-17T18:03:40.924Z,9.35
2019-05-17T18:06:11.813Z,9.33
2019-05-17T18:08:42.945Z,8.55
2019-05-17T18:11:13.841Z,9.80
2019-05-17T18:13:45.043Z,8.88
2019-05-17T18:16:16.164Z,11.65
2019-05-17T18:18:47.173Z,8.85
2019-05-17T18:21:18.363Z,8.60
2019-05-17T18:23:49.194Z,8.00
2019-05-17T18:26:20.328Z,9.03
2019-05-17T18:28:51.326Z,11.80
2019-05-17T18:31:23.973Z,9.05
2019-05-17T18:33:54.876Z,9.50
2019-05-17T18:36:26.176Z,11.57
2019-05-17T18:38:57.465Z,10.20
2019-05-17T18:41:28.492Z,8.18
2019-05-17T18:44:00.567Z,10.00
2019-05-17T18:46:31.696Z,9.40
2019-05-17T18:49:02.711Z,9.63
2019-05-17T18:51:33.682Z,7.97
2019-05-17T18:54:04.633Z,10.03
2019-05-17T18:56:35.851Z,8.40
2019-05-17T18:59:07.015Z,11.33
2019-05-17T19:01:38.360Z,9.63
2019-05-17T19:04:09.285Z,12.45
2019-05-17T19:06:40.450Z,9.95
2019-05-17T19:09:11.527Z,9.30
2019-05-17T19:11:42.804Z,10.68
2019-05-17T19:14:14.456Z,9.65
2019-05-17T19:16:45.499Z,11.22
2019-05-17T19:19:17.265Z,13.38
2019-05-17T19:21:48.325Z,11.05
2019-05-17T19:24:19.236Z,10.23
2019-05-17T19:26:50.155Z,11.12
2019-05-17T19:29:20.902Z,8.70
2019-05-17T19:31:51.735Z,10.58
2019-05-17T19:34:22.687Z,11.68
2019-05-17T19:36:54.163Z,10.68
2019-05-17T19:39:25.178Z,10.65
2019-05-17T19:41:56.130Z,9.90
2019-05-17T19:44:29.252Z,9.78
2019-05-17T19:46:59.759Z,11.08
2019-05-17T19:49:30.566Z,10.53
2019-05-17T19:52:04.161Z,12.20
2019-05-17T19:54:35.963Z,10.50
2019-05-17T19:59:38.124Z,9.80
2019-05-17T20:02:09.607Z,9.33
2019-05-17T20:04:40.312Z,9.13
2019-05-17T20:07:11.053Z,9.25
2019-05-17T20:09:41.918Z,12.23
2019-05-17T20:12:13.218Z,8.93
2019-05-17T20:14:43.979Z,9.63
2019-05-17T20:17:14.787Z,9.03
2019-05-17T20:19:45.931Z,9.50
2019-05-17T20:22:18.072Z,11.13
2019-05-17T20:24:48.804Z,10.08
2019-05-17T20:27:19.782Z,12.18
2019-05-17T20:29:50.422Z,10.03
2019-05-17T20:32:22.447Z,9.80
2019-05-17T20:34:53.180Z,11.30
2019-05-17T20:37:24.367Z,11.20
2019-05-17T20:39:55.297Z,11.78
2019-05-17T20:42:26.148Z,12.07
2019-05-17T20:44:56.911Z,10.25
2019-05-17T20:47:28.717Z,11.35
2019-05-17T20:49:59.411Z,11.08
2019-05-17T20:52:30.245Z,11.15
2019-05-17T20:55:01.767Z,10.45
2019-05-17T20:57:33.006Z,10.55
2019-05-17T21:00:05.841Z,9.10
2019-05-17T21:02:38.201Z,10.63
2019-05-17T21:05:09.115Z,10.58
2019-05-17T21:07:40.488Z,9.38
2019-05-17T21:10:11.463Z,11.90
2019-05-17T21:12:43.866Z,9.15
2019-05-17T21:15:15.189Z,9.55
2019-05-17T21:17:45.930Z,9.28
2019-05-17T21:20:16.675Z,8.80
2019-05-17T21:22:47.563Z,9.48
2019-05-17T21:25:18.535Z,9.25
2019-05-17T21:27:49.069Z,8.45
2019-05-17T21:30:19.720Z,8.13
2019-05-17T21:32:51.563Z,8.43
2019-05-17T21:35:22.621Z,8.33
2019-05-17T21:37:53.336Z,9.28
2019-05-17T21:40:24.659Z,7.03
2019-05-17T21:42:55.623Z,10.05
2019-05-17T21:45:26.431Z,5.12
2019-05-17T21:47:57.320Z,5.90
2019-05-17T21:50:28.129Z,5.45
2019-05-17T21:52:58.719Z,6.08
2019-05-17T21:55:29.581Z,6.85
2019-05-17T21:58:00.696Z,5.28
2019-05-17T22:00:50.849Z,4.97
2019-05-17T22:03:21.641Z,4.60
2019-05-17T22:05:52.458Z,5.45
2019-05-17T22:08:23.161Z,4.28
2019-05-17T22:10:54.009Z,7.67
2019-05-17T22:13:25.039Z,4.78
2019-05-17T22:15:55.904Z,3.50
2019-05-17T22:18:27.949Z,4.53
2019-05-17T22:20:59.187Z,5.65
2019-05-17T22:23:29.912Z,4.58
2019-05-17T22:26:00.626Z,3.65
2019-05-17T22:28:31.868Z,3.37
2019-05-17T22:31:02.903Z,3.00
2019-05-17T22:33:33.741Z,2.85
2019-05-17T22:36:04.694Z,2.00
2019-05-17T22:38:35.481Z,2.20
2019-05-17T22:41:06.167Z,2.80
2019-05-17T22:43:37.075Z,2.20
2019-05-17T22:46:07.658Z,1.65
2019-05-17T22:48:39.335Z,3.15
2019-05-17T22:51:09.896Z,2.00
2019-05-17T22:53:40.690Z,1.67
2019-05-17T22:56:11.241Z,1.40
2019-05-17T22:58:41.895Z,4.03
2019-05-17T23:01:12.773Z,3.08
2019-05-17T23:03:43.558Z,1.67
2019-05-17T23:06:14.156Z,1.65
2019-05-17T23:08:44.632Z,4.03
2019-05-17T23:11:15.454Z,1.60
2019-05-17T23:13:46.210Z,1.52
2019-05-17T23:16:16.792Z,1.60
2019-05-17T23:19:05.385Z,1.95
2019-05-17T23:21:36.059Z,1.92
2019-05-17T23:24:06.545Z,2.00
2019-05-17T23:26:37.149Z,1.92
2019-05-17T23:29:07.722Z,2.60
2019-05-17T23:31:38.372Z,1.82
2019-05-17T23:34:09.032Z,2.33
2019-05-17T23:36:39.967Z,1.77
2019-05-17T23:39:10.383Z,2.35
2019-05-17T23:41:40.935Z,1.70
2019-05-17T23:44:11.555Z,5.20
2019-05-17T23:46:42.143Z,2.45
2019-05-17T23:49:12.826Z,1.40
2019-05-17T23:51:43.501Z,1.30
2019-05-17T23:54:14.145Z,1.32
2019-05-17T23:56:44.771Z,2.80
2019-05-17T23:59:15.362Z,1.05
